createdAt,value
2023-09-17T00:02:08.282Z,4.55
2023-09-17T00:07:01.719Z,6.47
2023-09-17T00:09:28.227Z,6.95
2023-09-17T00:11:54.802Z,6.80
2023-09-17T00:14:21.824Z,6.63
2023-09-17T00:16:48.672Z,5.65
2023-09-17T00:19:15.235Z,5.55
2023-09-17T00:21:41.789Z,5.65
2023-09-17T00:24:08.560Z,4.78
2023-09-17T00:26:35.181Z,4.97
2023-09-17T00:29:02.156Z,5.45
2023-09-17T00:31:29.155Z,5.60
2023-09-17T00:33:55.885Z,5.85
2023-09-17T00:36:23.850Z,4.85
2023-09-17T00:38:50.444Z,5.65
2023-09-17T00:41:17.124Z,4.68
2023-09-17T00:43:43.690Z,4.07
2023-09-17T00:46:10.716Z,3.70
2023-09-17T00:48:38.530Z,5.10
2023-09-17T00:51:05.438Z,5.28
2023-09-17T00:53:32.240Z,5.28
2023-09-17T00:56:00.115Z,5.60
2023-09-17T00:58:29.705Z,5.35
2023-09-17T01:00:59.338Z,5.60
2023-09-17T01:03:29.471Z,4.88
2023-09-17T01:05:57.753Z,4.50
2023-09-17T01:08:26.297Z,4.95
2023-09-17T01:10:56.154Z,4.97
2023-09-17T01:13:25.350Z,5.13
2023-09-17T01:15:53.133Z,4.93
2023-09-17T01:18:23.253Z,4.75
2023-09-17T01:21:01.623Z,4.18
2023-09-17T01:23:39.718Z,4.82
2023-09-17T01:26:16.973Z,5.05
2023-09-17T01:28:43.933Z,4.97
2023-09-17T01:31:10.818Z,4.93
2023-09-17T01:33:37.340Z,5.03
2023-09-17T01:36:20.153Z,5.25
2023-09-17T01:38:53.707Z,5.22
2023-09-17T01:41:21.189Z,5.15
2023-09-17T01:43:48.130Z,4.50
2023-09-17T01:46:17.729Z,5.05
2023-09-17T01:48:46.808Z,5.50
2023-09-17T01:51:14.443Z,4.97
2023-09-17T01:56:07.437Z,5.00
2023-09-17T01:58:35.239Z,4.50
2023-09-17T02:01:02.138Z,5.22
2023-09-17T02:03:30.255Z,5.03
2023-09-17T02:05:57.037Z,5.15
2023-09-17T02:08:23.700Z,4.38
2023-09-17T02:10:50.201Z,5.15
2023-09-17T02:13:16.741Z,5.25
2023-09-17T02:15:43.458Z,5.43
2023-09-17T02:18:09.994Z,5.78
2023-09-17T02:20:40.227Z,5.40
2023-09-17T02:23:07.812Z,5.40
2023-09-17T02:28:00.991Z,4.03
2023-09-17T02:30:29.546Z,4.65
2023-09-17T02:32:56.105Z,3.95
2023-09-17T02:35:22.661Z,4.28
2023-09-17T02:37:50.427Z,4.55
2023-09-17T02:40:17.540Z,4.53
2023-09-17T02:42:45.456Z,4.30
2023-09-17T02:45:12.803Z,4.10
2023-09-17T02:47:41.759Z,4.85
2023-09-17T02:50:10.916Z,4.70
2023-09-17T02:52:37.862Z,4.53
2023-09-17T02:55:05.922Z,4.72
2023-09-17T02:57:32.712Z,4.60
2023-09-17T02:59:59.249Z,4.53
2023-09-17T03:02:26.255Z,4.85
2023-09-17T03:04:54.057Z,4.35
2023-09-17T03:07:20.720Z,4.05
2023-09-17T03:09:47.369Z,3.83
2023-09-17T03:12:13.901Z,4.32
2023-09-17T03:14:40.581Z,4.60
2023-09-17T03:17:07.176Z,4.45
2023-09-17T03:19:33.946Z,4.25
2023-09-17T03:22:01.778Z,4.75
2023-09-17T03:24:28.301Z,4.10
2023-09-17T03:26:54.748Z,3.60
2023-09-17T03:29:21.332Z,4.57
2023-09-17T03:31:49.492Z,5.03
2023-09-17T03:34:16.189Z,4.65
2023-09-17T03:36:42.679Z,5.75
2023-09-17T03:39:10.117Z,5.72
2023-09-17T03:41:41.269Z,5.05
2023-09-17T03:44:11.142Z,5.32
2023-09-17T03:46:39.319Z,5.43
2023-09-17T03:49:07.077Z,4.47
2023-09-17T03:51:33.935Z,4.65
2023-09-17T03:54:01.105Z,4.53
2023-09-17T03:56:28.256Z,4.68
2023-09-17T03:58:55.795Z,4.57
2023-09-17T04:03:50.074Z,4.80
2023-09-17T04:06:17.041Z,4.70
2023-09-17T04:08:44.027Z,5.38
2023-09-17T04:11:16.698Z,3.97
2023-09-17T04:13:43.319Z,4.97
2023-09-17T04:16:11.173Z,5.03
2023-09-17T04:18:37.874Z,4.68
2023-09-17T04:21:05.015Z,5.03
2023-09-17T04:23:31.710Z,4.95
2023-09-17T04:25:58.256Z,4.22
2023-09-17T04:28:25.230Z,4.15
2023-09-17T04:30:51.772Z,3.95
2023-09-17T04:33:20.715Z,3.10
2023-09-17T04:35:47.391Z,4.20
2023-09-17T04:38:13.884Z,4.35
2023-09-17T04:40:40.767Z,4.45
2023-09-17T04:43:07.333Z,4.65
2023-09-17T04:45:35.293Z,4.47
2023-09-17T04:48:02.358Z,4.82
2023-09-17T04:50:29.763Z,5.30
2023-09-17T04:52:56.792Z,4.72
2023-09-17T04:55:23.692Z,4.57
2023-09-17T04:57:51.187Z,5.22
2023-09-17T05:00:17.931Z,5.05
2023-09-17T05:02:44.463Z,4.80
2023-09-17T05:05:11.762Z,4.63
2023-09-17T05:07:41.160Z,4.75
2023-09-17T05:10:08.827Z,5.50
2023-09-17T05:15:01.846Z,4.63
2023-09-17T05:17:28.372Z,4.72
2023-09-17T05:19:55.040Z,5.07
2023-09-17T05:22:21.630Z,5.05
2023-09-17T05:24:48.213Z,5.60
2023-09-17T05:27:14.701Z,5.30
2023-09-17T05:29:42.065Z,4.68
2023-09-17T05:32:08.674Z,4.72
2023-09-17T05:34:35.435Z,5.05
2023-09-17T05:37:01.993Z,5.10
2023-09-17T05:39:28.495Z,5.35
2023-09-17T05:41:56.293Z,4.82
2023-09-17T05:44:23.909Z,5.15
2023-09-17T05:49:16.832Z,4.95
2023-09-17T05:51:43.333Z,5.68
2023-09-17T05:54:10.107Z,5.30
2023-09-17T05:56:36.625Z,5.50
2023-09-17T05:59:03.152Z,4.90
2023-09-17T06:01:31.969Z,4.47
2023-09-17T06:03:58.599Z,5.10
2023-09-17T06:06:25.211Z,5.53
2023-09-17T06:08:53.092Z,5.22
2023-09-17T06:11:20.407Z,5.57
2023-09-17T06:13:47.083Z,5.78
2023-09-17T06:16:13.697Z,5.80
2023-09-17T06:18:40.196Z,5.20
2023-09-17T06:21:06.654Z,5.32
2023-09-17T06:23:33.205Z,4.97
2023-09-17T06:26:00.593Z,5.50
2023-09-17T06:28:27.434Z,5.80
2023-09-17T06:30:54.962Z,4.60
2023-09-17T06:35:48.010Z,5.40
2023-09-17T06:38:14.516Z,5.53
2023-09-17T06:40:41.042Z,4.85
2023-09-17T06:43:07.517Z,5.13
2023-09-17T06:45:34.187Z,5.47
2023-09-17T06:48:00.864Z,5.10
2023-09-17T06:50:27.428Z,4.75
2023-09-17T06:52:53.973Z,5.47
2023-09-17T06:55:20.493Z,5.18
2023-09-17T06:57:47.056Z,5.05
2023-09-17T07:00:15.416Z,5.00
2023-09-17T07:02:42.170Z,5.13
2023-09-17T07:05:09.942Z,5.03
2023-09-17T07:07:36.548Z,5.18
2023-09-17T07:10:05.308Z,5.38
2023-09-17T07:12:37.062Z,6.55
2023-09-17T07:15:04.806Z,5.38
2023-09-17T07:17:31.492Z,5.50
2023-09-17T07:19:58.288Z,6.05
2023-09-17T07:22:24.847Z,5.97
2023-09-17T07:24:57.234Z,6.10
2023-09-17T07:27:23.760Z,6.20
2023-09-17T07:29:50.283Z,6.00
2023-09-17T07:32:16.861Z,6.28
2023-09-17T07:34:43.409Z,5.53
2023-09-17T07:37:09.926Z,5.75
2023-09-17T07:39:36.483Z,6.63
2023-09-17T07:42:03.627Z,6.47
2023-09-17T07:44:30.144Z,6.43
2023-09-17T07:46:56.636Z,6.30
2023-09-17T07:49:28.297Z,6.57
2023-09-17T07:51:54.943Z,6.38
2023-09-17T07:54:21.460Z,6.82
2023-09-17T07:56:48.021Z,7.68
2023-09-17T07:59:14.523Z,6.47
2023-09-17T08:01:41.161Z,6.28
2023-09-17T08:04:10.809Z,6.72
2023-09-17T08:06:37.384Z,7.03
2023-09-17T08:09:06.625Z,6.63
2023-09-17T08:11:33.219Z,5.82
2023-09-17T08:14:00.302Z,6.97
2023-09-17T08:16:27.341Z,7.25
2023-09-17T08:18:53.949Z,7.88
2023-09-17T08:21:21.575Z,6.60
2023-09-17T08:23:48.116Z,7.32
2023-09-17T08:26:14.642Z,6.85
2023-09-17T08:28:43.465Z,6.45
2023-09-17T08:31:10.030Z,7.43
2023-09-17T08:33:37.073Z,7.13
2023-09-17T08:36:04.107Z,7.15
2023-09-17T08:38:31.166Z,8.32
2023-09-17T08:41:02.415Z,8.25
2023-09-17T08:43:29.445Z,7.28
2023-09-17T08:45:56.294Z,6.68
2023-09-17T08:48:24.001Z,6.78
2023-09-17T08:50:52.151Z,5.97
2023-09-17T08:53:29.637Z,7.18
2023-09-17T08:55:58.241Z,5.90
2023-09-17T08:58:37.555Z,6.80
2023-09-17T09:01:05.785Z,7.28
2023-09-17T09:03:36.330Z,7.13
2023-09-17T09:06:04.810Z,6.57
2023-09-17T09:08:35.882Z,7.82
2023-09-17T09:11:02.548Z,7.43
2023-09-17T09:13:30.062Z,7.93
2023-09-17T09:15:57.950Z,7.65
2023-09-17T09:18:25.706Z,7.72
2023-09-17T09:20:52.300Z,8.32
2023-09-17T09:23:18.775Z,8.10
2023-09-17T09:25:45.624Z,8.45
2023-09-17T09:28:12.382Z,8.75
2023-09-17T09:30:38.892Z,9.02
2023-09-17T09:33:05.853Z,8.23
2023-09-17T09:35:32.613Z,8.52
2023-09-17T09:38:01.265Z,9.02
2023-09-17T09:40:28.394Z,8.77
2023-09-17T09:42:55.093Z,8.77
2023-09-17T09:45:21.626Z,8.50
2023-09-17T09:47:52.684Z,8.82
2023-09-17T09:50:27.537Z,8.80
2023-09-17T09:52:54.932Z,8.68
2023-09-17T09:55:26.005Z,9.18
2023-09-17T09:57:53.801Z,9.38
2023-09-17T10:00:30.666Z,9.90
2023-09-17T10:02:57.700Z,8.52
2023-09-17T10:05:41.211Z,9.27
2023-09-17T10:08:12.532Z,8.40
2023-09-17T10:10:40.127Z,9.45
2023-09-17T10:13:08.357Z,8.43
2023-09-17T10:15:40.182Z,8.05
2023-09-17T10:18:11.843Z,8.45
2023-09-17T10:20:39.555Z,8.68
2023-09-17T10:23:07.657Z,8.70
2023-09-17T10:25:35.150Z,8.70
2023-09-17T10:28:03.531Z,8.65
2023-09-17T10:30:31.762Z,8.63
2023-09-17T10:32:59.988Z,9.15
2023-09-17T10:35:27.007Z,8.73
2023-09-17T10:37:57.945Z,8.65
2023-09-17T10:40:26.235Z,8.40
2023-09-17T10:42:54.199Z,8.45
2023-09-17T10:45:22.506Z,8.38
2023-09-17T10:47:52.003Z,8.63
2023-09-17T10:50:19.868Z,9.07
2023-09-17T10:52:46.424Z,9.38
2023-09-17T10:55:13.087Z,8.73
2023-09-17T10:57:48.302Z,8.52
2023-09-17T11:00:19.680Z,8.23
2023-09-17T11:02:53.124Z,8.25
2023-09-17T11:05:23.997Z,8.18
2023-09-17T11:07:53.590Z,8.98
2023-09-17T11:10:31.294Z,8.38
2023-09-17T11:12:59.100Z,8.57
2023-09-17T11:15:25.855Z,8.95
2023-09-17T11:17:59.591Z,8.60
2023-09-17T11:20:26.365Z,8.02
2023-09-17T11:22:53.073Z,8.75
2023-09-17T11:25:36.574Z,10.05
2023-09-17T11:28:13.683Z,8.73
2023-09-17T11:30:57.571Z,8.05
2023-09-17T11:33:25.863Z,7.85
2023-09-17T11:35:54.251Z,8.02
2023-09-17T11:38:27.102Z,8.75
2023-09-17T11:41:11.257Z,12.88
2023-09-17T11:43:49.166Z,9.20
2023-09-17T11:46:17.134Z,9.23
2023-09-17T11:48:45.047Z,8.38
2023-09-17T11:51:23.730Z,9.70
2023-09-17T11:53:51.090Z,9.30
2023-09-17T11:56:17.884Z,9.10
2023-09-17T11:58:44.465Z,9.80
2023-09-17T12:01:11.000Z,9.65
2023-09-17T12:03:38.003Z,9.75
2023-09-17T12:06:06.152Z,9.70
2023-09-17T12:08:33.209Z,9.63
2023-09-17T12:13:34.813Z,9.73
2023-09-17T12:16:02.196Z,8.80
2023-09-17T12:18:29.597Z,9.30
2023-09-17T12:21:00.778Z,9.43
2023-09-17T12:23:48.366Z,10.07
2023-09-17T12:27:00.058Z,9.88
2023-09-17T12:29:26.565Z,9.82
2023-09-17T12:31:53.205Z,9.70
2023-09-17T12:34:20.836Z,10.00
2023-09-17T12:36:47.318Z,10.27
2023-09-17T12:39:14.016Z,9.27
2023-09-17T12:41:41.393Z,9.80
2023-09-17T12:44:08.213Z,10.77
2023-09-17T12:46:34.995Z,10.50
2023-09-17T12:49:02.030Z,10.27
2023-09-17T12:51:28.750Z,9.75
2023-09-17T12:53:55.347Z,10.07
2023-09-17T12:56:22.421Z,10.38
2023-09-17T13:01:18.976Z,9.68
2023-09-17T13:03:53.855Z,10.82
2023-09-17T13:06:21.507Z,9.93
2023-09-17T13:08:48.729Z,10.38
2023-09-17T13:11:15.802Z,11.43
2023-09-17T13:16:13.493Z,11.07
2023-09-17T13:21:07.346Z,11.82
2023-09-17T13:23:38.157Z,10.82
2023-09-17T13:26:06.250Z,11.00
2023-09-17T13:28:33.286Z,10.60
2023-09-17T13:31:04.862Z,10.75
2023-09-17T13:33:32.760Z,10.10
2023-09-17T13:36:01.136Z,11.30
2023-09-17T13:38:27.954Z,10.77
2023-09-17T13:40:54.862Z,10.63
2023-09-17T13:43:21.650Z,11.18
2023-09-17T13:46:02.758Z,11.52
2023-09-17T13:48:30.235Z,11.23
2023-09-17T13:50:57.732Z,11.32
2023-09-17T13:53:24.802Z,10.90
2023-09-17T13:58:18.063Z,11.20
2023-09-17T14:00:44.645Z,11.30
2023-09-17T14:03:15.716Z,10.88
2023-09-17T14:05:45.318Z,10.75
2023-09-17T14:08:12.687Z,10.90
2023-09-17T14:10:42.264Z,11.30
2023-09-17T14:13:09.014Z,11.55
2023-09-17T14:15:36.930Z,10.90
2023-09-17T14:18:03.849Z,11.43
2023-09-17T14:20:30.726Z,12.02
2023-09-17T14:22:57.449Z,11.57
2023-09-17T14:25:24.527Z,11.35
2023-09-17T14:27:51.184Z,10.93
2023-09-17T14:30:22.997Z,10.80
2023-09-17T14:32:51.927Z,11.00
2023-09-17T14:35:19.220Z,10.93
2023-09-17T14:37:47.357Z,11.50
2023-09-17T14:40:14.310Z,11.20
2023-09-17T14:42:40.977Z,11.60
2023-09-17T14:45:08.163Z,11.30
2023-09-17T14:47:36.794Z,10.40
2023-09-17T14:50:03.553Z,10.55
2023-09-17T14:52:30.064Z,11.18
2023-09-17T14:54:56.903Z,11.05
2023-09-17T14:57:23.419Z,10.95
2023-09-17T14:59:49.886Z,10.27
2023-09-17T15:02:17.677Z,10.20
2023-09-17T15:04:44.425Z,11.55
2023-09-17T15:07:13.333Z,11.55
2023-09-17T15:09:41.029Z,11.25
2023-09-17T15:12:07.762Z,11.02
2023-09-17T15:14:34.521Z,11.13
2023-09-17T15:17:01.270Z,10.25
2023-09-17T15:19:27.903Z,10.27
2023-09-17T15:21:54.392Z,10.85
2023-09-17T15:24:20.916Z,10.55
2023-09-17T15:26:47.442Z,11.07
2023-09-17T15:29:14.399Z,10.65
2023-09-17T15:31:41.320Z,11.40
2023-09-17T15:34:08.245Z,10.60
2023-09-17T15:36:35.246Z,10.50
2023-09-17T15:39:01.916Z,10.05
2023-09-17T15:41:29.773Z,10.55
2023-09-17T15:43:56.467Z,10.23
2023-09-17T15:46:24.566Z,10.00
2023-09-17T15:48:51.562Z,10.10
2023-09-17T15:53:45.977Z,10.23
2023-09-17T15:56:12.631Z,10.18
2023-09-17T15:58:39.327Z,10.05
2023-09-17T16:01:05.932Z,10.32
2023-09-17T16:03:32.630Z,10.15
2023-09-17T16:06:01.127Z,10.05
2023-09-17T16:08:27.671Z,10.13
2023-09-17T16:10:54.533Z,10.18
2023-09-17T16:13:21.118Z,10.40
2023-09-17T16:15:51.754Z,10.55
2023-09-17T16:18:18.807Z,10.32
2023-09-17T16:20:45.368Z,11.18
2023-09-17T16:23:11.998Z,10.60
2023-09-17T16:25:39.364Z,10.35
2023-09-17T16:28:06.420Z,10.68
2023-09-17T16:30:32.957Z,10.63
2023-09-17T16:32:59.691Z,10.32
2023-09-17T16:35:27.381Z,11.27
2023-09-17T16:37:53.845Z,10.70
2023-09-17T16:40:20.523Z,10.88
2023-09-17T16:42:58.023Z,10.55
2023-09-17T16:45:32.624Z,10.25
2023-09-17T16:47:59.499Z,10.43
2023-09-17T16:50:29.362Z,11.15
2023-09-17T16:52:56.494Z,10.48
2023-09-17T16:55:23.153Z,10.25
2023-09-17T16:57:49.719Z,9.77
2023-09-17T17:00:16.591Z,9.80
2023-09-17T17:02:43.198Z,10.52
2023-09-17T17:05:09.844Z,9.85
2023-09-17T17:07:36.399Z,10.02
2023-09-17T17:10:02.951Z,10.32
2023-09-17T17:12:29.486Z,10.57
2023-09-17T17:14:56.041Z,11.52
2023-09-17T17:17:23.342Z,10.65
2023-09-17T17:19:50.069Z,10.65
2023-09-17T17:22:17.636Z,10.60
2023-09-17T17:24:44.138Z,11.30
2023-09-17T17:27:10.653Z,10.57
2023-09-17T17:29:37.447Z,10.95
2023-09-17T17:32:04.244Z,11.00
2023-09-17T17:34:30.836Z,10.73
2023-09-17T17:37:01.073Z,10.07
2023-09-17T17:39:27.637Z,10.55
2023-09-17T17:41:54.179Z,11.05
2023-09-17T17:44:20.731Z,12.43
2023-09-17T17:46:47.459Z,12.20
2023-09-17T17:49:13.997Z,11.40
2023-09-17T17:51:40.536Z,10.88
2023-09-17T17:54:07.160Z,10.98
2023-09-17T17:56:33.697Z,11.38
2023-09-17T17:59:00.327Z,11.07
2023-09-17T18:01:27.473Z,11.38
2023-09-17T18:03:54.157Z,11.75
2023-09-17T18:06:21.597Z,12.73
2023-09-17T18:08:48.124Z,11.05
2023-09-17T18:11:15.786Z,11.60
2023-09-17T18:13:42.941Z,12.00
2023-09-17T18:16:09.653Z,12.13
2023-09-17T18:18:36.224Z,12.10
2023-09-17T18:21:02.725Z,11.52
2023-09-17T18:23:29.228Z,12.10
2023-09-17T18:25:56.146Z,11.63
2023-09-17T18:28:23.431Z,10.43
2023-09-17T18:30:50.042Z,11.00
2023-09-17T18:33:16.597Z,11.13
2023-09-17T18:35:43.659Z,10.80
2023-09-17T18:38:10.173Z,10.80
2023-09-17T18:40:38.525Z,11.43
2023-09-17T18:43:05.746Z,10.68
2023-09-17T18:45:33.006Z,10.38
2023-09-17T18:47:59.566Z,10.88
2023-09-17T18:50:26.285Z,10.82
2023-09-17T18:52:53.149Z,11.25
2023-09-17T18:55:19.810Z,10.98
2023-09-17T18:57:46.309Z,11.27
2023-09-17T19:00:14.371Z,11.18
2023-09-17T19:02:43.204Z,11.35
2023-09-17T19:05:10.755Z,11.02
2023-09-17T19:07:37.972Z,11.48
2023-09-17T19:10:05.551Z,10.82
2023-09-17T19:12:32.155Z,10.52
2023-09-17T19:15:00.214Z,11.10
2023-09-17T19:17:28.806Z,10.98
2023-09-17T19:19:55.718Z,10.40
2023-09-17T19:22:22.301Z,10.18
2023-09-17T19:24:48.885Z,10.23
2023-09-17T19:27:16.107Z,9.98
2023-09-17T19:29:45.511Z,9.98
2023-09-17T19:32:14.716Z,9.65
2023-09-17T19:34:41.553Z,10.40
2023-09-17T19:37:09.181Z,10.10
2023-09-17T19:39:35.905Z,9.45
2023-09-17T19:42:02.488Z,9.85
2023-09-17T19:44:29.142Z,10.25
2023-09-17T19:46:57.887Z,10.18
2023-09-17T19:49:26.080Z,9.80
2023-09-17T19:51:52.612Z,9.75
2023-09-17T19:54:19.080Z,9.45
2023-09-17T19:56:47.699Z,9.20
2023-09-17T19:59:14.248Z,9.30
2023-09-17T20:01:40.868Z,9.93
2023-09-17T20:04:08.262Z,9.85
2023-09-17T20:06:47.676Z,9.20
2023-09-17T20:09:21.956Z,9.05
2023-09-17T20:11:48.721Z,8.05
2023-09-17T20:14:15.242Z,8.68
2023-09-17T20:16:41.818Z,8.40
2023-09-17T20:19:08.436Z,8.68
2023-09-17T20:21:35.016Z,8.23
2023-09-17T20:24:01.524Z,8.40
2023-09-17T20:26:28.111Z,9.55
2023-09-17T20:28:54.960Z,8.60
2023-09-17T20:31:21.947Z,8.40
2023-09-17T20:33:48.881Z,9.25
2023-09-17T20:36:15.473Z,8.85
2023-09-17T20:38:45.937Z,8.05
2023-09-17T20:41:13.100Z,8.32
2023-09-17T20:43:39.677Z,8.35
2023-09-17T20:46:06.238Z,8.38
2023-09-17T20:48:32.971Z,8.02
2023-09-17T20:51:01.512Z,8.00
2023-09-17T20:53:30.217Z,9.13
2023-09-17T20:55:56.966Z,7.95
2023-09-17T20:58:23.492Z,7.80
2023-09-17T21:00:50.054Z,8.27
2023-09-17T21:03:16.758Z,7.75
2023-09-17T21:05:50.007Z,8.32
2023-09-17T21:08:16.778Z,8.45
2023-09-17T21:10:43.770Z,8.00
2023-09-17T21:13:11.965Z,7.68
2023-09-17T21:15:39.354Z,7.95
2023-09-17T21:18:07.109Z,7.53
2023-09-17T21:20:34.048Z,7.60
2023-09-17T21:23:01.394Z,7.95
2023-09-17T21:27:55.313Z,7.53
2023-09-17T21:30:21.953Z,7.40
2023-09-17T21:32:48.699Z,7.82
2023-09-17T21:35:15.629Z,8.00
2023-09-17T21:37:42.242Z,7.10
2023-09-17T21:40:09.508Z,7.53
2023-09-17T21:42:37.131Z,7.78
2023-09-17T21:45:04.295Z,7.47
2023-09-17T21:47:31.016Z,7.53
2023-09-17T21:50:00.620Z,7.53
2023-09-17T21:52:29.560Z,7.32
2023-09-17T21:54:59.129Z,7.50
2023-09-17T21:57:25.837Z,7.90
2023-09-17T21:59:52.959Z,7.82
2023-09-17T22:02:20.416Z,7.15
2023-09-17T22:04:47.230Z,7.57
2023-09-17T22:07:13.818Z,7.07
2023-09-17T22:09:41.000Z,6.60
2023-09-17T22:12:08.502Z,6.53
2023-09-17T22:14:35.783Z,6.88
2023-09-17T22:17:06.060Z,6.90
2023-09-17T22:19:34.129Z,6.72
2023-09-17T22:22:00.755Z,7.35
2023-09-17T22:24:27.248Z,7.00
2023-09-17T22:26:53.746Z,7.68
2023-09-17T22:29:20.291Z,7.35
2023-09-17T22:31:46.802Z,7.32
2023-09-17T22:34:13.442Z,7.20
2023-09-17T22:36:40.570Z,7.97
2023-09-17T22:39:07.366Z,7.57
2023-09-17T22:41:34.081Z,6.43
2023-09-17T22:44:11.851Z,7.47
2023-09-17T22:46:43.190Z,6.90
2023-09-17T22:49:09.902Z,6.72
2023-09-17T22:51:37.151Z,6.38
2023-09-17T22:54:03.894Z,7.10
2023-09-17T22:56:30.562Z,6.30
2023-09-17T22:58:57.161Z,6.97
2023-09-17T23:01:23.714Z,7.13
2023-09-17T23:03:50.225Z,7.28
2023-09-17T23:06:17.485Z,7.03
2023-09-17T23:08:44.009Z,7.10
2023-09-17T23:11:10.752Z,7.63
2023-09-17T23:13:37.461Z,6.95
2023-09-17T23:16:04.681Z,7.90
2023-09-17T23:18:31.436Z,6.93
2023-09-17T23:20:58.420Z,6.72
2023-09-17T23:23:25.339Z,6.35
2023-09-17T23:25:56.138Z,6.95
2023-09-17T23:28:24.427Z,7.05
2023-09-17T23:30:52.316Z,6.85
2023-09-17T23:33:21.933Z,7.53
2023-09-17T23:35:51.089Z,6.50
2023-09-17T23:38:18.360Z,6.55
2023-09-17T23:40:45.191Z,7.45
2023-09-17T23:43:12.260Z,7.13
2023-09-17T23:45:40.346Z,6.57
2023-09-17T23:48:07.147Z,6.57
2023-09-17T23:50:33.846Z,6.78
2023-09-17T23:53:00.507Z,6.70
2023-09-17T23:55:27.291Z,6.57
2023-09-17T23:57:53.850Z,6.57
